Flight Track Log - Related Links

Times and Time Zones

All times are in EDT time to prevent confusion due to time zone crossing. See the DAL1065 flight status page for this flight to view local times or setup timezone preferences in your user account.

Time Position Orientation Groundspeed Altitude Reporting Facility
EDT Latitude Longitude Course Direction KTS MPH feet Rate Location/Type
Sat 06:17:25 AM 41.9564 -72.6661 236° Southwest 179 206 1,000  Level Boston Center
Sat 06:18:27 AM 41.9919 -72.5908 58° Northeast 217 250 2,200 1,820 Climbing Boston Center
Sat 06:19:27 AM 42.0397 -72.5239 46° Northeast 262 302 4,700 2,650 Climbing Boston Center
Sat 06:20:00 AM 41.9141 -73.1066 262° West  Level FlightAware Approximate
Sat 06:20:27 AM 42.0836 -72.5828 315° West 159 183 7,500  Level Boston Center
Sat 06:21:00 AM 41.9000 -73.2468 270° West  Level FlightAware Approximate
Sat 06:21:39 AM 42.0647 -72.6722 254° West 181 208 10,200  Level Boston Center
Sat 06:22:00 AM 41.8633 -73.3735 236° Southwest  Level FlightAware Approximate
Sat 06:22:39 AM 42.0350 -72.7922 252° West 232 267 11,800  Level Boston Center
Sat 06:23:39 AM 42.0033 -72.9178 251° West 310 357 13,300 2,450 Climbing Boston Center
Sat 06:24:39 AM 41.9736 -73.0433 252° West 354 407 16,700 2,400 Climbing Boston Center
Sat 06:25:39 AM 41.9458 -73.1575 252° West 364 419 18,100 1,350 Climbing Boston Center
Sat 06:26:39 AM 41.9011 -73.3103 249° West 386 444 19,400 1,400 Climbing Boston Center
Sat 06:27:39 AM 41.8436 -73.4378 239° Southwest 397 457 20,900 1,600 Climbing Boston Center
Sat 06:28:39 AM 41.7800 -73.5647 236° Southwest 409 471 22,600 1,500 Climbing Boston Center
Sat 06:29:39 AM 41.6997 -73.6717 225° Southwest 419 482 23,900 1,418 Climbing Boston Center
Sat 06:31:41 AM 41.5369 -73.8833 224° Southwest 419 482 26,900 1,425 Climbing New York Center
Sat 06:32:40 AM 41.4594 -73.9878 225° Southwest 413 475 28,200 1,300 Climbing New York Center
Sat 06:33:41 AM 41.3772 -74.0944 224° Southwest 413 475 29,500 1,377 Climbing New York Center
Sat 06:34:42 AM 41.2994 -74.1956 224° Southwest 406 467 31,000 1,008 Climbing New York Center
Sat 06:35:40 AM 41.2281 -74.2828 223° Southwest 401 461 31,500 500 Climbing New York Center
Sat 06:36:42 AM 41.1542 -74.3836 226° Southwest 395 455 32,000 248 Climbing New York Center
Sat 06:37:41 AM 41.0764 -74.4786 223° Southwest 395 455 32,000  Level New York Center
Sat 06:38:42 AM 41.0003 -74.5761 224° Southwest 395 455 32,000 -50 Level New York Center
Sat 06:39:40 AM 40.9219 -74.6789 225° Southwest 395 455 31,900  Descending New York Center
Sat 06:40:41 AM 40.8350 -74.7892 224° Southwest 395 455 32,000 49 Climbing New York Center
Sat 06:41:42 AM 40.7653 -74.8781 224° Southwest 395 455 32,000  Level New York Center
Sat 06:42:43 AM 40.6781 -74.9878 224° Southwest 395 455 32,000 101 Level New York Center
Sat 06:43:41 AM 40.5994 -75.0869 224° Southwest 395 455 32,200 454 Climbing New York Center
Sat 06:44:42 AM 40.5228 -75.1886 225° Southwest 395 455 32,900 807 Climbing New York Center
Sat 06:45:40 AM 40.4461 -75.2872 224° Southwest 395 455 33,800 555 Climbing New York Center
Sat 06:46:41 AM 40.3672 -75.3828 223° Southwest 395 455 34,000 99 Climbing New York Center
Sat 06:47:41 AM 40.2883 -75.4811 224° Southwest 395 455 34,000 -50 Level New York Center
Sat 06:48:41 AM 40.2153 -75.5847 227° Southwest 395 455 33,900  Descending New York Center
Sat 06:49:42 AM 40.1564 -75.7003 236° Southwest 395 455 34,000 50 Climbing New York Center
Sat 06:50:40 AM 40.0972 -75.8156 236° Southwest 390 449 34,000 -800 Level New York Center
Sat 06:51:42 AM 40.0400 -75.9333 238° Southwest 390 449 32,400 -992 Descending New York Center
Sat 06:52:41 AM 39.9767 -76.0506 235° Southwest 390 449 32,000 -202 Descending New York Center
Sat 06:53:41 AM 39.9211 -76.1683 238° Southwest 390 449 32,000  Level New York Center
Sat 06:54:42 AM 39.8600 -76.2717 232° Southwest 396 456 32,000  Level New York Center
Sat 06:56:10 AM 39.7731 -76.4500 238° Southwest 390 449 32,000  Level Washington Center
Sat 06:57:11 AM 39.7056 -76.5706 234° Southwest 390 449 32,000  Level Washington Center
Sat 06:58:11 AM 39.6461 -76.6856 236° Southwest 390 449 32,000  Level Washington Center
Sat 06:59:09 AM 39.5867 -76.8006 236° Southwest 390 449 32,000  Level Washington Center
Sat 07:00:10 AM 39.5294 -76.9125 236° Southwest 390 449 32,000  Level Washington Center
Sat 07:01:09 AM 39.4656 -77.0217 233° Southwest 390 449 32,000  Level Washington Center
Sat 07:02:11 AM 39.3933 -77.1222 227° Southwest 390 449 32,000  Level Washington Center
Sat 07:03:11 AM 39.3214 -77.2228 227° Southwest 390 449 32,000  Level Washington Center
Sat 07:04:10 AM 39.2511 -77.3203 227° Southwest 380 437 32,000  Level Washington Center
Sat 07:05:11 AM 39.1789 -77.4178 226° Southwest 380 437 32,000 -958 Level Washington Center
Sat 07:06:09 AM 39.1044 -77.5175 226° Southwest 380 437 30,100 -1,008 Descending Washington Center
Sat 07:07:10 AM 39.0319 -77.6172 227° Southwest 385 443 30,000 -49 Descending Washington Center
Sat 07:08:11 AM 38.9658 -77.7061 226° Southwest 385 443 30,000  Level Washington Center
Sat 07:09:12 AM 38.8844 -77.8131 226° Southwest 385 443 30,000  Level Washington Center
Sat 07:10:12 AM 38.8161 -77.9042 226° Southwest 385 443 30,000  Level Washington Center
Sat 07:11:11 AM 38.7411 -78.0031 226° Southwest 385 443 30,000  Level Washington Center
Sat 07:12:11 AM 38.6683 -78.1017 227° Southwest 385 443 30,000  Level Washington Center
Sat 07:13:09 AM 38.5933 -78.2003 226° Southwest 385 443 30,000  Level Washington Center
Sat 07:14:10 AM 38.5181 -78.3008 226° Southwest 385 443 30,000  Level Washington Center
Sat 07:15:10 AM 38.4428 -78.3964 225° Southwest 385 443 30,000  Level Washington Center
Sat 07:16:10 AM 38.3675 -78.4942 226° Southwest 385 443 30,000  Level Washington Center
Sat 07:17:11 AM 38.2942 -78.5969 228° Southwest 385 443 30,000  Level Washington Center
Sat 07:18:12 AM 38.2142 -78.7022 226° Southwest 385 443 30,000  Level Washington Center
Sat 07:19:10 AM 38.1475 -78.7892 226° Southwest 385 443 30,000  Level Washington Center
Sat 07:20:11 AM 38.0717 -78.8889 226° Southwest 385 443 30,000  Level Washington Center
Sat 07:21:09 AM 37.9958 -78.9856 225° Southwest 385 443 30,000  Level Washington Center
Sat 07:22:10 AM 37.9222 -79.0825 226° Southwest 385 443 30,000  Level Washington Center
Sat 07:23:10 AM 37.8419 -79.1892 226° Southwest 390 449 30,000  Level Washington Center
Sat 07:24:12 AM 37.7700 -79.2881 227° Southwest 390 449 30,000  Level Washington Center
Sat 07:25:10 AM 37.6983 -79.3844 227° Southwest 384 442 30,000  Level Washington Center
Sat 07:26:10 AM 37.6283 -79.4806 227° Southwest 378 435 30,000  Level Washington Center
Sat 07:27:09 AM 37.5586 -79.5739 227° Southwest 378 435 30,000  Level Washington Center
Sat 07:28:12 AM 37.4908 -79.6697 228° Southwest 378 435 30,000  Level Washington Center
Sat 07:29:09 AM 37.4183 -79.7731 229° Southwest 383 441 30,000  Level Washington Center
Sat 07:30:10 AM 37.3461 -79.8686 226° Southwest 388 447 30,000  Level Washington Center
Sat 07:31:11 AM 37.2825 -79.9564 228° Southwest 388 447 30,000  Level Washington Center
Sat 07:32:10 AM 37.2122 -80.0514 227° Southwest 383 441 30,000  Level Washington Center
Sat 07:33:46 AM 37.0894 -80.2167 227° Southwest 381 438 30,000  Level Atlanta Center
Sat 07:34:46 AM 37.0175 -80.3164 228° Southwest 381 438 30,000  Level Atlanta Center
Sat 07:35:46 AM 36.9453 -80.4131 227° Southwest 381 438 30,000  Level Atlanta Center
Sat 07:36:46 AM 36.8728 -80.5072 226° Southwest 387 445 30,000  Level Atlanta Center
Sat 07:37:46 AM 36.8067 -80.5958 227° Southwest 382 440 30,000  Level Atlanta Center
Sat 07:38:46 AM 36.7303 -80.7028 228° Southwest 377 434 30,000  Level Atlanta Center
Sat 07:39:46 AM 36.6558 -80.7989 226° Southwest 383 441 30,000 -400 Level Atlanta Center
Sat 07:40:46 AM 36.5833 -80.8950 227° Southwest 383 441 29,200 -500 Descending Atlanta Center
Sat 07:41:46 AM 36.5083 -80.9908 226° Southwest 383 441 29,000 -100 Descending Atlanta Center
Sat 07:42:46 AM 36.4336 -81.0892 227° Southwest 383 441 29,000  Level Atlanta Center
Sat 07:43:46 AM 36.3461 -81.1725 218° Southwest 389 448 29,000  Level Atlanta Center
Sat 07:44:46 AM 36.2450 -81.2275 204° Southwest 396 456 29,000 -500 Level Atlanta Center
Sat 07:45:46 AM 36.1506 -81.2950 210° Southwest 404 465 28,000 -1,000 Descending Atlanta Center
Sat 07:46:46 AM 36.0778 -81.3925 227° Southwest 394 453 27,000 -500 Descending Atlanta Center
Sat 07:47:46 AM 36.0047 -81.4950 229° Southwest 394 453 27,000  Level Atlanta Center
Sat 07:48:46 AM 35.9339 -81.5997 230° Southwest 406 467 27,000  Level Atlanta Center
Sat 07:49:46 AM 35.8589 -81.7072 229° Southwest 413 475 27,000  Level Atlanta Center
Sat 07:50:46 AM 35.7836 -81.8092 228° Southwest 408 470 27,000  Level Atlanta Center
Sat 07:51:46 AM 35.7083 -81.9136 228° Southwest 408 470 27,000  Level Atlanta Center
Sat 07:52:46 AM 35.6431 -82.0072 229° Southwest 413 475 27,000  Level Atlanta Center
Sat 07:53:46 AM 35.5697 -82.1111 229° Southwest 413 475 27,000  Level Atlanta Center
Sat 07:54:46 AM 35.4897 -82.2125 226° Southwest 413 475 27,000 -150 Level Atlanta Center
Sat 07:55:46 AM 35.4078 -82.3086 224° Southwest 413 475 26,700 -1,050 Descending Atlanta Center
Sat 07:56:46 AM 35.3256 -82.4069 224° Southwest 413 475 24,900 -1,350 Descending Atlanta Center
Sat 07:57:46 AM 35.2456 -82.5053 225° Southwest 413 475 24,000 -450 Descending Atlanta Center
Sat 07:58:46 AM 35.1611 -82.5983 222° Southwest 413 475 24,000  Level Atlanta Center
Sat 07:59:46 AM 35.0767 -82.6986 224° Southwest 413 475 24,000  Level Atlanta Center
Sat 08:00:46 AM 34.9942 -82.7939 223° Southwest 419 482 24,000  Level Atlanta Center
Sat 08:01:46 AM 34.8994 -82.9067 224° Southwest 424 488 24,000  Level Atlanta Center
Sat 08:02:46 AM 34.8189 -83.0014 224° Southwest 418 481 24,000  Level Atlanta Center
Sat 08:03:46 AM 34.7361 -83.0986 224° Southwest 417 480 24,000  Level Atlanta Center
Sat 08:04:46 AM 34.6492 -83.2006 224° Southwest 417 480 24,000  Level Atlanta Center
Sat 08:05:46 AM 34.5747 -83.2869 224° Southwest 417 480 24,000 -700 Level Atlanta Center
Sat 08:06:46 AM 34.4894 -83.3811 222° Southwest 423 487 22,600 -2,050 Descending Atlanta Center
Sat 08:07:46 AM 34.4067 -83.4747 223° Southwest 423 487 19,900 -2,550 Descending Atlanta Center
Sat 08:08:46 AM 34.3297 -83.5658 224° Southwest 407 468 17,500 -2,450 Descending Atlanta Center
Sat 08:09:46 AM 34.2550 -83.6517 224° Southwest 382 440 15,000 -2,450 Descending Atlanta Center
Sat 08:10:46 AM 34.1842 -83.7325 223° Southwest 362 417 12,600 -1,500 Descending Atlanta Center
Sat 08:11:46 AM 34.1072 -83.8181 223° Southwest 349 402 12,000 -429 Descending Atlanta Center
Sat 08:12:38 AM 34.0500 -83.8833 223° Southwest 279 321 11,800 -906 Descending Atlanta TRACON
Sat 08:13:32 AM 34.0000 -83.9333 220° Southwest 267 307 10,400 -887 Descending Atlanta TRACON
Sat 08:14:33 AM 33.9500 -83.9833 220° Southwest 274 315 10,100 -524 Descending Atlanta TRACON
Sat 08:15:38 AM 33.8833 -84.0667 226° Southwest 268 308 9,300 -1,440 Descending Atlanta TRACON
Sat 08:16:38 AM 33.8500 -84.1333 239° Southwest 261 300 7,100 -1,600 Descending Atlanta TRACON
Sat 08:17:38 AM 33.7833 -84.1500 192° South 244 281 6,100 -893 Descending Atlanta TRACON
Sat 08:18:39 AM 33.7500 -84.1000 129° Southeast 243 280 5,300 -496 Descending Atlanta TRACON
Sat 08:19:39 AM 33.7500 -84.0167 90° East 242 278 5,100 -100 Descending Atlanta TRACON
Sat 08:20:39 AM 33.7000 -83.9833 151° Southeast 232 267 5,100 -48 Level Atlanta TRACON
Sat 08:21:44 AM 33.6500 -84.0167 209° Southwest 220 253 5,000 -48 Descending Atlanta TRACON
Sat 08:22:45 AM 33.6500 -84.0833 270° West 204 235 5,000  Level Atlanta TRACON
Sat 08:23:44 AM 33.6500 -84.1500 270° West 193 222 5,000  Level Atlanta TRACON

Login

Don't have an account? Register now (free) for customized features, flight alerts, and more!